Petawawa Airport
CYWA : now visible

Airfield :











YOU CAN JOIN US ON...

 
LOGIN :

Register | Disclaimer

   EN    FR    IT 

 









Legend :    VFR   Marginal VFR   IFR   Intensive IFR   Very Intensive IFR
Visi :
Ceiling :
>= 8 km
>= 3000ft
5 to 8 km
1000 to 3000 ft
1500m to 5 km
500 to 1000 ft
800 to 1500m
200 to 500 ft
< 800m
< 200 ft
Symbols :   Thunderstorms  Fog  Heavy snow  Heavy precipitations  Wind > 20 kt






- Airport Elevation : 427 ft
- IATA code : YWA


CYWA - Petawawa

CURRENT METAR :
  • 260510Z AUTO 00000KT 2 1/4SM OVC002 M00/M00 A2971

EXPIRED METARs :
  • 260458Z AUTO 00000KT 2SM OVC001 M00/M00 A2971
  • 260432Z AUTO 00000KT 2 1/4SM OVC003 M00/M01 A2972
  • 260419Z AUTO 00000KT 2SM OVC002 M00/M01 A2972
  • 260359Z AUTO 00000KT 1 1/4SM OVC001 M00/M01 A2973
  • 260336Z AUTO 00000KT 2 1/2SM BKN001 OVC007 M00/M01 A2974
  • 260326Z AUTO 00000KT 2 1/4SM BKN003 OVC008 M00/M01 A2974
  • 260311Z AUTO 00000KT 1 1/4SM FEW003 OVC009 M00/M01 A2975
  • 260304Z AUTO 00000KT 1 1/4SM FEW002 OVC010 M00/M01 A2975
  • 260241Z AUTO 00000KT 1 1/4SM BKN003 OVC013 M00/M01 A2976
  • 260238Z AUTO 00000KT 1 1/4SM SCT003 OVC015 M00/M01 A2976
  • 260226Z AUTO 00000KT 3/4SM FEW002 OVC017 M00/M01 A2977
  • 260216Z AUTO 00000KT 3/4SM -UP VV003 M00/M00 A2978

TAF AMD TAF CYWA
Valid from the 26 at 03:00 until the 26 at 12:00 UTC


260319Z 2603/2612 VRB03KT 1SM -SN BKN003 OVC008
TEMPO 2603/2612 3SM -SN SCT003 OVC010 RMK FCST BASED ON AUTO OBS. NXT FCST BY 260600Z



MET'MAP, your aeronautical weather chart ! - Copyright ORBIFLY December 2007 - Disclaimer

ORBIFLY MET'MAP TEAM :

Programming & Development : Alexandra Zaïnal
Concept & original design : Baudouin d'Aumeries
Assistance for programming : Marc-Olivier Méhu
Technical & hardware support : Manuel Goepfert

Contact : metmap@orbifly.com




SOURCES & CREDITS :

   NOAA       Earth
Advisory